createdAt,value
2018-10-21T00:02:30.432Z,10.25
2018-10-21T00:05:04.262Z,10.22
2018-10-21T00:07:38.199Z,10.15
2018-10-21T00:10:12.238Z,10.14
2018-10-21T00:12:46.080Z,10.15
2018-10-21T00:15:20.014Z,10.16
2018-10-21T00:17:53.908Z,10.17
2018-10-21T00:20:27.730Z,10.18
2018-10-21T00:23:01.565Z,10.18
2018-10-21T00:25:35.465Z,10.17
2018-10-21T00:28:09.512Z,10.18
2018-10-21T00:30:43.309Z,10.17
2018-10-21T00:33:17.320Z,10.18
2018-10-21T00:35:51.123Z,10.13
2018-10-21T00:38:24.966Z,10.15
2018-10-21T00:40:58.831Z,10.13
2018-10-21T00:43:32.816Z,10.09
2018-10-21T00:46:06.869Z,10.11
2018-10-21T00:48:40.724Z,10.12
2018-10-21T00:51:14.658Z,10.14
2018-10-21T00:53:48.590Z,10.16
2018-10-21T00:56:22.671Z,10.17
2018-10-21T00:58:56.676Z,10.20
2018-10-21T01:01:30.489Z,10.21
2018-10-21T01:04:04.426Z,10.25
2018-10-21T01:06:38.307Z,10.26
2018-10-21T01:09:13.639Z,10.28
2018-10-21T01:11:47.463Z,10.31
2018-10-21T01:14:21.512Z,10.32
2018-10-21T01:16:55.348Z,10.31
2018-10-21T01:19:29.295Z,10.33
2018-10-21T01:22:03.111Z,10.36
2018-10-21T01:24:37.110Z,10.39
2018-10-21T01:27:11.023Z,10.38
2018-10-21T01:29:47.808Z,10.39
2018-10-21T01:32:21.652Z,10.40
2018-10-21T01:34:55.503Z,10.41
2018-10-21T01:37:29.420Z,10.40
2018-10-21T01:43:16.869Z,10.39
2018-10-21T01:45:50.785Z,10.36
2018-10-21T01:48:25.678Z,10.35
2018-10-21T01:50:59.499Z,10.34
2018-10-21T01:53:33.393Z,10.35
2018-10-21T01:56:07.238Z,10.38
2018-10-21T01:58:41.099Z,10.40
2018-10-21T02:01:14.857Z,10.43
2018-10-21T02:03:48.726Z,10.45
2018-10-21T02:06:22.548Z,10.46
2018-10-21T02:08:56.448Z,10.45
2018-10-21T02:11:30.242Z,10.45
2018-10-21T02:14:04.139Z,10.44
2018-10-21T02:16:38.001Z,10.45
2018-10-21T02:19:11.906Z,10.44
2018-10-21T02:21:45.730Z,10.46
2018-10-21T02:24:19.597Z,10.47
2018-10-21T02:26:53.478Z,10.46
2018-10-21T02:29:27.416Z,10.50
2018-10-21T02:32:01.324Z,10.49
2018-10-21T02:34:35.239Z,10.53
2018-10-21T02:37:09.079Z,10.55
2018-10-21T02:39:42.932Z,10.58
2018-10-21T02:42:16.825Z,10.60
2018-10-21T02:44:50.755Z,10.64
2018-10-21T02:47:24.604Z,10.65
2018-10-21T02:49:58.474Z,10.66
2018-10-21T02:52:32.293Z,10.70
2018-10-21T02:55:06.349Z,10.74
2018-10-21T02:57:40.234Z,10.79
2018-10-21T03:00:14.192Z,10.83
2018-10-21T03:02:48.044Z,10.85
2018-10-21T03:05:21.959Z,10.88
2018-10-21T03:07:55.779Z,10.93
2018-10-21T03:10:29.653Z,10.95
2018-10-21T03:13:03.471Z,10.99
2018-10-21T03:15:37.332Z,11.05
2018-10-21T03:18:11.169Z,11.06
2018-10-21T03:20:45.227Z,11.09
2018-10-21T03:23:19.072Z,11.11
2018-10-21T03:25:52.975Z,11.13
2018-10-21T03:28:26.818Z,11.16
2018-10-21T03:31:00.862Z,11.17
2018-10-21T03:33:34.708Z,11.17
2018-10-21T03:36:08.649Z,11.19
2018-10-21T03:38:42.450Z,11.22
2018-10-21T03:41:16.329Z,11.27
2018-10-21T03:43:50.210Z,11.31
2018-10-21T03:46:24.170Z,11.35
2018-10-21T03:48:57.953Z,11.39
2018-10-21T03:51:31.912Z,11.41
2018-10-21T03:54:05.769Z,11.43
2018-10-21T03:56:39.770Z,11.43
2018-10-21T03:59:13.603Z,11.42
2018-10-21T04:01:47.516Z,11.41
2018-10-21T04:04:21.341Z,11.38
2018-10-21T04:06:55.158Z,11.35
2018-10-21T04:09:29.088Z,11.30
2018-10-21T04:12:02.935Z,11.29
2018-10-21T04:14:36.746Z,11.29
2018-10-21T04:17:10.608Z,11.27
2018-10-21T04:19:44.437Z,11.24
2018-10-21T04:22:18.243Z,11.22
2018-10-21T04:24:52.043Z,11.20
2018-10-21T04:27:25.986Z,11.17
2018-10-21T04:29:59.838Z,11.15
2018-10-21T04:32:34.575Z,11.12
2018-10-21T04:35:08.017Z,11.08
2018-10-21T04:38:24.571Z,11.05
2018-10-21T04:40:58.417Z,11.06
2018-10-21T04:43:32.337Z,11.03
2018-10-21T04:46:06.567Z,11.02
2018-10-21T04:48:40.416Z,10.96
2018-10-21T04:51:14.249Z,10.93
2018-10-21T04:53:48.111Z,10.87
2018-10-21T04:56:22.020Z,10.83
2018-10-21T04:58:55.905Z,10.79
2018-10-21T05:01:29.703Z,10.78
2018-10-21T05:04:03.633Z,10.74
2018-10-21T05:06:37.484Z,10.69
2018-10-21T05:09:11.449Z,10.65
2018-10-21T05:11:45.307Z,10.62
2018-10-21T05:14:19.281Z,10.59
2018-10-21T05:16:53.187Z,10.54
2018-10-21T05:19:27.193Z,10.50
2018-10-21T05:22:01.120Z,10.44
2018-10-21T05:24:34.946Z,10.41
2018-10-21T05:27:09.020Z,10.37
2018-10-21T05:29:42.995Z,10.31
2018-10-21T05:32:16.824Z,10.26
2018-10-21T05:34:50.825Z,10.19
2018-10-21T05:37:24.672Z,10.16
2018-10-21T05:39:58.696Z,10.11
2018-10-21T05:42:32.572Z,10.07
2018-10-21T05:45:07.445Z,10.06
2018-10-21T05:47:41.639Z,10.03
2018-10-21T05:50:16.393Z,10.01
2018-10-21T05:52:50.261Z,10.02
2018-10-21T05:55:24.178Z,10.03
2018-10-21T05:57:58.166Z,10.06
2018-10-21T06:00:32.037Z,10.08
2018-10-21T06:03:05.997Z,10.14
2018-10-21T06:05:43.180Z,10.18
2018-10-21T06:08:17.137Z,10.21
2018-10-21T06:10:50.983Z,10.25
2018-10-21T06:13:24.820Z,10.29
2018-10-21T06:15:58.682Z,10.34
2018-10-21T06:18:32.605Z,10.41
2018-10-21T06:21:07.158Z,10.47
2018-10-21T06:23:41.098Z,10.51
2018-10-21T06:26:14.907Z,10.55
2018-10-21T06:28:48.717Z,10.58
2018-10-21T06:31:22.717Z,10.62
2018-10-21T06:33:56.616Z,10.68
2018-10-21T06:36:30.572Z,10.73
2018-10-21T06:39:05.537Z,10.79
2018-10-21T06:41:39.384Z,10.86
2018-10-21T06:44:13.247Z,10.92
2018-10-21T06:46:47.114Z,10.96
2018-10-21T06:49:20.962Z,11.00
2018-10-21T06:51:54.833Z,11.09
2018-10-21T06:54:28.678Z,11.16
2018-10-21T06:57:02.641Z,11.21
2018-10-21T06:59:36.441Z,11.29
2018-10-21T07:02:10.298Z,11.38
2018-10-21T07:04:44.291Z,11.45
2018-10-21T07:07:18.136Z,11.54
2018-10-21T07:09:51.970Z,11.61
2018-10-21T07:12:25.843Z,11.70
2018-10-21T07:14:59.673Z,11.77
2018-10-21T07:17:33.614Z,11.84
2018-10-21T07:20:07.528Z,11.93
2018-10-21T07:22:42.257Z,12.04
2018-10-21T07:25:16.082Z,12.11
2018-10-21T07:27:50.075Z,12.23
2018-10-21T07:30:23.861Z,12.37
2018-10-21T07:32:57.749Z,12.54
2018-10-21T07:35:31.554Z,12.70
2018-10-21T07:38:05.549Z,12.86
2018-10-21T07:40:39.350Z,13.02
2018-10-21T07:43:13.280Z,13.19
2018-10-21T07:45:47.073Z,13.33
2018-10-21T07:48:21.122Z,13.51
2018-10-21T07:50:55.036Z,13.62
2018-10-21T07:53:28.881Z,13.76
2018-10-21T07:56:02.723Z,13.89
2018-10-21T07:58:36.643Z,13.97
2018-10-21T08:01:10.477Z,14.07
2018-10-21T08:03:44.298Z,14.23
2018-10-21T08:06:35.599Z,14.36
2018-10-21T08:09:11.189Z,14.40
2018-10-21T08:11:45.019Z,14.51
2018-10-21T08:14:18.984Z,14.59
2018-10-21T08:16:52.809Z,14.68
2018-10-21T08:19:26.675Z,14.78
2018-10-21T08:22:00.503Z,14.79
2018-10-21T08:24:34.421Z,14.86
2018-10-21T08:27:08.293Z,14.94
2018-10-21T08:29:42.169Z,15.01
2018-10-21T08:32:16.017Z,15.07
2018-10-21T08:34:49.858Z,15.21
2018-10-21T08:37:23.720Z,15.34
2018-10-21T08:39:57.621Z,15.45
2018-10-21T08:42:31.449Z,15.64
2018-10-21T08:45:05.393Z,15.87
2018-10-21T08:47:39.308Z,16.03
2018-10-21T08:50:14.071Z,16.21
2018-10-21T08:52:47.932Z,16.34
2018-10-21T08:55:21.789Z,16.39
2018-10-21T08:57:55.666Z,16.25
2018-10-21T09:00:29.636Z,16.33
2018-10-21T09:03:03.472Z,16.36
2018-10-21T09:05:37.454Z,16.44
2018-10-21T09:08:11.315Z,16.56
2018-10-21T09:10:45.314Z,16.62
2018-10-21T09:13:19.118Z,16.65
2018-10-21T09:15:52.995Z,16.74
2018-10-21T09:18:26.820Z,16.88
2018-10-21T09:21:00.682Z,16.99
2018-10-21T09:23:34.542Z,17.07
2018-10-21T09:26:08.445Z,17.11
2018-10-21T09:28:42.279Z,17.10
2018-10-21T09:31:16.158Z,17.16
2018-10-21T09:33:50.277Z,17.24
2018-10-21T09:36:24.287Z,17.26
2018-10-21T09:38:58.110Z,17.23
2018-10-21T09:41:32.041Z,17.35
2018-10-21T09:44:06.143Z,17.37
2018-10-21T09:46:40.776Z,17.55
2018-10-21T09:49:14.676Z,17.63
2018-10-21T09:51:48.551Z,17.69
2018-10-21T09:54:22.379Z,17.75
2018-10-21T09:56:56.462Z,17.71
2018-10-21T09:59:30.396Z,17.70
2018-10-21T10:02:09.526Z,17.80
2018-10-21T10:04:43.378Z,17.91
2018-10-21T10:07:17.316Z,18.02
2018-10-21T10:09:51.224Z,17.97
2018-10-21T10:12:25.094Z,18.07
2018-10-21T10:14:58.969Z,18.23
2018-10-21T10:17:32.915Z,18.28
2018-10-21T10:20:08.266Z,18.37
2018-10-21T10:22:42.149Z,18.48
2018-10-21T10:25:16.029Z,18.53
2018-10-21T10:27:50.001Z,18.57
2018-10-21T10:30:23.871Z,18.33
2018-10-21T10:32:57.740Z,18.27
2018-10-21T10:35:31.678Z,18.27
2018-10-21T10:38:05.639Z,18.35
2018-10-21T10:40:39.549Z,18.45
2018-10-21T10:43:13.449Z,18.42
2018-10-21T10:45:47.302Z,18.52
2018-10-21T10:48:21.157Z,18.50
2018-10-21T10:50:54.999Z,18.56
2018-10-21T10:53:28.937Z,18.52
2018-10-21T10:56:02.796Z,18.55
2018-10-21T10:58:36.657Z,18.51
2018-10-21T11:01:10.546Z,18.60
2018-10-21T11:03:44.412Z,18.68
2018-10-21T11:06:18.289Z,18.68
2018-10-21T11:08:52.088Z,18.81
2018-10-21T11:11:25.919Z,18.74
2018-10-21T11:13:59.857Z,18.84
2018-10-21T11:16:33.699Z,18.92
2018-10-21T11:19:07.596Z,18.93
2018-10-21T11:21:41.534Z,19.08
2018-10-21T11:24:15.393Z,19.15
2018-10-21T11:26:49.381Z,19.21
2018-10-21T11:29:23.378Z,19.22
2018-10-21T11:31:57.185Z,19.04
2018-10-21T11:34:31.059Z,19.12
2018-10-21T11:37:04.934Z,19.06
2018-10-21T11:39:39.034Z,19.15
2018-10-21T11:42:12.892Z,19.19
2018-10-21T11:44:46.731Z,19.21
2018-10-21T11:47:20.582Z,19.35
2018-10-21T11:49:54.492Z,19.40
2018-10-21T11:52:28.465Z,19.40
2018-10-21T11:55:02.457Z,19.38
2018-10-21T11:57:36.308Z,19.39
2018-10-21T12:00:10.680Z,19.40
2018-10-21T12:02:44.525Z,19.42
2018-10-21T12:05:18.383Z,19.35
2018-10-21T12:07:52.235Z,19.27
2018-10-21T12:10:26.084Z,19.18
2018-10-21T12:13:00.030Z,19.26
2018-10-21T12:15:34.331Z,19.36
2018-10-21T12:18:08.835Z,19.32
2018-10-21T12:20:42.722Z,19.32
2018-10-21T12:23:16.570Z,19.33
2018-10-21T12:25:50.417Z,19.28
2018-10-21T12:28:24.235Z,19.29
2018-10-21T12:30:58.099Z,19.31
2018-10-21T12:33:36.099Z,19.27
2018-10-21T12:36:10.199Z,19.21
2018-10-21T12:38:44.088Z,19.23
2018-10-21T12:41:18.116Z,19.22
2018-10-21T12:43:51.942Z,19.21
2018-10-21T12:46:25.836Z,19.15
2018-10-21T12:48:59.744Z,19.12
2018-10-21T12:51:33.619Z,19.07
2018-10-21T12:54:07.571Z,19.11
2018-10-21T12:56:41.358Z,19.08
2018-10-21T12:59:15.265Z,19.10
2018-10-21T13:01:49.152Z,19.07
2018-10-21T13:04:23.007Z,19.08
2018-10-21T13:06:56.874Z,19.07
2018-10-21T13:09:30.696Z,19.08
2018-10-21T13:12:04.586Z,18.87
2018-10-21T13:14:38.427Z,18.90
2018-10-21T13:17:12.307Z,18.97
2018-10-21T13:19:46.171Z,19.01
2018-10-21T13:22:20.087Z,19.02
2018-10-21T13:24:53.940Z,18.99
2018-10-21T13:27:27.783Z,18.92
2018-10-21T13:30:01.607Z,18.83
2018-10-21T13:32:35.474Z,18.81
2018-10-21T13:35:09.373Z,18.69
2018-10-21T13:37:43.213Z,18.65
2018-10-21T13:40:17.195Z,18.72
2018-10-21T13:42:50.994Z,18.64
2018-10-21T13:45:24.857Z,18.59
2018-10-21T13:47:58.793Z,18.63
2018-10-21T13:50:32.626Z,18.66
2018-10-21T13:53:06.565Z,18.62
2018-10-21T13:55:40.385Z,18.66
2018-10-21T13:58:14.342Z,18.60
2018-10-21T14:00:48.192Z,18.45
2018-10-21T14:03:22.174Z,18.55
2018-10-21T14:05:56.014Z,18.55
2018-10-21T14:08:29.988Z,18.47
2018-10-21T14:11:03.885Z,18.47
2018-10-21T14:13:37.755Z,18.50
2018-10-21T14:16:11.641Z,18.51
2018-10-21T14:18:45.574Z,18.50
2018-10-21T14:21:19.338Z,18.52
2018-10-21T14:23:53.309Z,18.56
2018-10-21T14:26:27.105Z,18.58
2018-10-21T14:29:01.035Z,18.57
2018-10-21T14:31:34.848Z,18.58
2018-10-21T14:34:08.756Z,18.50
2018-10-21T14:36:42.600Z,18.46
2018-10-21T14:39:16.556Z,18.44
2018-10-21T14:41:50.315Z,18.46
2018-10-21T14:44:24.192Z,18.47
2018-10-21T14:46:58.013Z,18.43
2018-10-21T14:49:31.858Z,18.42
2018-10-21T14:52:05.900Z,18.44
2018-10-21T14:54:39.741Z,18.41
2018-10-21T14:57:13.691Z,18.41
2018-10-21T14:59:47.656Z,18.39
2018-10-21T15:02:21.506Z,18.39
2018-10-21T15:04:55.403Z,18.35
2018-10-21T15:07:29.233Z,18.33
2018-10-21T15:10:03.134Z,18.31
2018-10-21T15:12:37.059Z,18.28
2018-10-21T15:15:11.608Z,18.25
2018-10-21T15:17:45.423Z,18.22
2018-10-21T15:20:19.303Z,18.19
2018-10-21T15:22:53.202Z,18.12
2018-10-21T15:25:27.079Z,18.06
2018-10-21T15:28:00.892Z,18.05
2018-10-21T15:30:34.716Z,18.06
2018-10-21T15:33:08.565Z,18.05
2018-10-21T15:35:42.436Z,17.99
2018-10-21T15:38:16.294Z,17.94
2018-10-21T15:40:50.278Z,17.89
2018-10-21T15:43:24.115Z,17.83
2018-10-21T15:45:58.025Z,17.78
2018-10-21T15:48:31.992Z,17.73
2018-10-21T15:51:05.992Z,17.69
2018-10-21T15:53:39.820Z,17.62
2018-10-21T15:56:13.877Z,17.53
2018-10-21T15:58:47.589Z,17.46
2018-10-21T16:01:21.500Z,17.36
2018-10-21T16:03:55.402Z,17.25
2018-10-21T16:06:29.268Z,17.16
2018-10-21T16:09:03.192Z,17.05
2018-10-21T16:11:37.075Z,16.94
2018-10-21T16:14:11.070Z,16.83
2018-10-21T16:16:44.922Z,16.75
2018-10-21T16:19:18.748Z,16.62
2018-10-21T16:21:52.780Z,16.50
2018-10-21T16:24:26.626Z,16.40
2018-10-21T16:27:00.483Z,16.28
2018-10-21T16:29:34.280Z,16.19
2018-10-21T16:32:08.472Z,16.10
2018-10-21T16:34:42.279Z,16.03
2018-10-21T16:37:16.188Z,15.95
2018-10-21T16:39:49.971Z,15.85
2018-10-21T16:42:23.837Z,15.76
2018-10-21T16:44:57.924Z,15.66
2018-10-21T16:47:31.781Z,15.57
2018-10-21T16:50:06.616Z,15.48
2018-10-21T16:52:40.688Z,15.41
2018-10-21T16:55:15.241Z,15.31
2018-10-21T16:57:49.136Z,15.20
2018-10-21T17:00:23.031Z,15.08
2018-10-21T17:02:57.032Z,14.98
2018-10-21T17:05:30.892Z,14.90
2018-10-21T17:08:04.805Z,14.79
2018-10-21T17:10:39.444Z,14.72
2018-10-21T17:13:13.493Z,14.56
2018-10-21T17:15:47.257Z,14.46
2018-10-21T17:18:21.218Z,14.38
2018-10-21T17:20:55.168Z,14.27
2018-10-21T17:23:29.109Z,14.20
2018-10-21T17:26:02.939Z,14.13
2018-10-21T17:28:36.823Z,14.06
2018-10-21T17:31:10.653Z,13.98
2018-10-21T17:33:44.686Z,13.92
2018-10-21T17:36:18.512Z,13.84
2018-10-21T17:38:52.372Z,13.79
2018-10-21T17:41:26.228Z,13.70
2018-10-21T17:44:00.077Z,13.57
2018-10-21T17:46:33.973Z,13.48
2018-10-21T17:49:08.011Z,13.40
2018-10-21T17:51:41.873Z,13.32
2018-10-21T17:54:15.751Z,13.23
2018-10-21T17:56:54.651Z,13.11
2018-10-21T17:59:29.092Z,13.03
2018-10-21T18:02:03.135Z,12.95
2018-10-21T18:04:37.051Z,12.87
2018-10-21T18:07:10.909Z,12.82
2018-10-21T18:09:44.866Z,12.77
2018-10-21T18:12:18.934Z,12.71
2018-10-21T18:14:52.792Z,12.66
2018-10-21T18:17:26.638Z,12.60
2018-10-21T18:20:00.573Z,12.57
2018-10-21T18:22:34.369Z,12.50
2018-10-21T18:25:09.249Z,12.44
2018-10-21T18:27:43.200Z,12.38
2018-10-21T18:30:17.088Z,12.33
2018-10-21T18:32:50.909Z,12.28
2018-10-21T18:35:24.783Z,12.22
2018-10-21T18:37:58.668Z,12.15
2018-10-21T18:40:32.530Z,12.10
2018-10-21T18:43:06.479Z,12.04
2018-10-21T18:45:40.316Z,11.94
2018-10-21T18:48:14.244Z,11.86
2018-10-21T18:50:48.180Z,11.80
2018-10-21T18:53:22.004Z,11.74
2018-10-21T18:55:55.943Z,11.70
2018-10-21T18:58:29.807Z,11.63
2018-10-21T19:01:03.760Z,11.58
2018-10-21T19:03:37.600Z,11.50
2018-10-21T19:06:11.537Z,11.38
2018-10-21T19:08:45.373Z,11.32
2018-10-21T19:11:19.421Z,11.28
2018-10-21T19:13:53.305Z,11.23
2018-10-21T19:16:27.171Z,11.17
2018-10-21T19:19:01.014Z,11.11
2018-10-21T19:21:34.889Z,11.11
2018-10-21T19:24:08.770Z,11.09
2018-10-21T19:26:42.651Z,11.06
2018-10-21T19:29:16.481Z,11.00
2018-10-21T19:31:50.350Z,10.96
2018-10-21T19:34:24.391Z,10.94
2018-10-21T19:36:58.206Z,10.89
2018-10-21T19:39:32.046Z,10.87
2018-10-21T19:42:06.059Z,10.84
2018-10-21T19:44:39.915Z,10.80
2018-10-21T19:47:13.804Z,10.77
2018-10-21T19:49:47.656Z,10.63
2018-10-21T19:52:21.525Z,10.56
2018-10-21T19:54:55.365Z,10.42
2018-10-21T19:57:29.467Z,10.35
2018-10-21T20:00:03.546Z,10.29
2018-10-21T20:02:37.501Z,10.22
2018-10-21T20:05:11.631Z,10.25
2018-10-21T20:07:45.604Z,10.31
2018-10-21T20:10:19.519Z,10.33
2018-10-21T20:12:53.428Z,10.41
2018-10-21T20:15:27.250Z,10.49
2018-10-21T20:18:01.263Z,10.59
2018-10-21T20:20:35.046Z,10.65
2018-10-21T20:23:08.981Z,10.71
2018-10-21T20:25:42.807Z,10.73
2018-10-21T20:28:16.768Z,10.77
2018-10-21T20:30:50.677Z,10.84
2018-10-21T20:33:25.944Z,10.90
2018-10-21T20:36:01.208Z,10.95
2018-10-21T20:38:36.703Z,11.02
2018-10-21T20:41:11.659Z,11.10
2018-10-21T20:43:46.507Z,11.15
2018-10-21T20:46:21.565Z,11.21
2018-10-21T20:48:55.588Z,11.29
2018-10-21T20:51:29.568Z,11.36
2018-10-21T20:54:03.518Z,11.42
2018-10-21T20:56:37.480Z,11.49
2018-10-21T20:59:11.335Z,11.53
2018-10-21T21:01:45.179Z,11.59
2018-10-21T21:04:19.116Z,11.66
2018-10-21T21:06:52.949Z,11.76
2018-10-21T21:09:26.858Z,11.84
2018-10-21T21:12:00.700Z,11.93
2018-10-21T21:14:34.816Z,12.01
2018-10-21T21:17:08.618Z,12.09
2018-10-21T21:19:42.494Z,12.17
2018-10-21T21:22:16.393Z,12.23
2018-10-21T21:24:50.286Z,12.30
2018-10-21T21:27:24.127Z,12.35
2018-10-21T21:29:58.200Z,12.40
2018-10-21T21:32:32.014Z,12.46
2018-10-21T21:35:06.893Z,12.51
2018-10-21T21:37:40.741Z,12.53
2018-10-21T21:40:14.995Z,12.55
2018-10-21T21:42:48.805Z,12.60
2018-10-21T21:45:22.742Z,12.66
2018-10-21T21:47:56.634Z,12.68
2018-10-21T21:50:30.557Z,12.73
2018-10-21T21:53:04.430Z,12.78
2018-10-21T21:55:38.265Z,12.78
2018-10-21T21:58:12.143Z,12.80
2018-10-21T22:00:46.042Z,12.83
2018-10-21T22:03:19.873Z,12.85
2018-10-21T22:05:53.781Z,12.88
2018-10-21T22:08:27.639Z,12.90
2018-10-21T22:11:01.525Z,12.94
2018-10-21T22:13:35.994Z,12.96
2018-10-21T22:16:09.902Z,13.00
2018-10-21T22:18:43.771Z,13.02
2018-10-21T22:21:17.715Z,13.00
2018-10-21T22:23:51.544Z,13.04
2018-10-21T22:26:25.430Z,13.05
2018-10-21T22:28:59.254Z,13.06
2018-10-21T22:31:33.146Z,13.05
2018-10-21T22:34:07.025Z,13.02
2018-10-21T22:36:40.933Z,13.02
2018-10-21T22:39:14.859Z,13.03
2018-10-21T22:41:48.814Z,13.04
2018-10-21T22:44:22.648Z,13.04
2018-10-21T22:46:56.488Z,13.05
2018-10-21T22:49:30.328Z,13.04
2018-10-21T22:52:04.252Z,13.08
2018-10-21T22:54:38.081Z,13.11
2018-10-21T22:57:16.990Z,13.13
2018-10-21T22:59:51.221Z,13.18
2018-10-21T23:02:25.168Z,13.20
2018-10-21T23:04:59.006Z,13.22
2018-10-21T23:07:32.867Z,13.25
2018-10-21T23:10:06.935Z,13.31
2018-10-21T23:12:40.813Z,13.35
2018-10-21T23:15:14.629Z,13.38
2018-10-21T23:17:48.504Z,13.39
2018-10-21T23:20:22.313Z,13.41
2018-10-21T23:22:56.234Z,13.41
2018-10-21T23:25:30.035Z,13.43
2018-10-21T23:28:04.115Z,13.43
2018-10-21T23:30:37.915Z,13.46
2018-10-21T23:33:11.739Z,13.47
2018-10-21T23:35:45.568Z,13.50
2018-10-21T23:38:19.426Z,13.52
2018-10-21T23:40:53.307Z,13.53
2018-10-21T23:43:27.158Z,13.55
2018-10-21T23:46:01.112Z,13.53
2018-10-21T23:48:34.946Z,13.52
2018-10-21T23:51:08.772Z,13.54
2018-10-21T23:53:42.649Z,13.54
2018-10-21T23:56:16.670Z,13.56
2018-10-21T23:58:50.714Z,13.56
